Latest Weather Observations for South Johnstone

IDQ60801

Issued at 8:32 pm EST Monday 30 March 2015 (issued every 30 minutes, with the page automatically refreshed every 10 minutes)

About weather observations | Map of weather stations | Latest weather observations for QLD | Other Formats
Station Details ID: 032037 Name: SOUTH JOHNSTONE EXP STN Lat: -17.61 Lon: 146.00 Height: 18.3 m
Data from the previous 72 hours. | See also: Recent months at South Johnstone
Date/Time
EST
Temp
°C
App
Temp
°C
Dew
Point
Rel
Hum
%
Delta-T
°C
Wind Press
QNH
hPa
Press
MSL
hPa
Rain
since 9 am
mm
Dir
 
Spd
km/h
Gust
km/h
Spd
kts
Gust
kts
30/08:30pm 25.6 30.7 23.4 88 1.5 SE 2 7 1 4 1017.0 - 6.0
30/08:00pm 26.4 30.3 22.9 81 2.4 SSW 7 13 4 7 1016.7 - 5.2
30/07:30pm 26.4 30.1 22.5 79 2.6 S 7 13 4 7 1016.6 - 5.2
30/07:00pm 26.2 29.5 22.6 80 2.4 S 9 15 5 8 1016.2 - 5.2
30/06:30pm 26.0 30.2 23.2 84 1.9 SSE 6 7 3 4 1016.0 - 5.2
30/06:00pm 26.5 30.7 23.4 83 2.1 SSE 7 11 4 6 1015.8 1015.7 5.2
30/05:30pm 27.6 30.4 23.0 76 3.1 SSE 13 26 7 14 1015.6 - 5.2
30/05:00pm 28.1 29.9 22.5 71 3.8 SSE 17 24 9 13 1015.5 - 5.2
30/04:30pm 28.5 30.9 22.9 71 3.8 SE 15 24 8 13 1015.2 - 5.2
30/04:00pm 28.5 31.7 23.7 75 3.3 ESE 13 24 7 13 1015.0 - 5.2
30/03:30pm 27.7 31.7 23.8 79 2.7 SSW 9 13 5 7 1014.9 - 5.2
30/03:00pm 27.2 30.1 22.5 75 3.2 S 11 19 6 10 1015.0 1014.9 5.0
30/02:30pm 26.6 31.1 22.3 77 2.9 S 2 7 1 4 1015.2 - 5.0
30/02:00pm 24.9 28.1 23.1 90 1.2 E 11 20 6 11 1015.5 - 5.0
30/01:30pm 28.8 30.6 21.8 66 4.7 ESE 15 28 8 15 1015.7 - 0.2
30/01:00pm 30.2 31.4 21.4 59 5.9 S 17 28 9 15 1015.7 - 0.2
30/12:30pm 30.0 31.7 21.7 61 5.6 SE 15 26 8 14 1016.3 - 0.2
30/12:00pm 29.0 29.7 20.5 60 5.6 SSE 17 24 9 13 1016.8 1016.7 0.2
30/11:30am 29.7 30.7 21.0 59 5.8 SE 17 28 9 15 1017.4 - 0.2
30/11:00am 28.9 30.1 20.7 61 5.4 ESE 15 26 8 14 1017.8 - 0.2
30/10:30am 28.8 29.1 20.8 62 5.3 SE 20 30 11 16 1017.9 - 0.0
30/10:00am 29.4 30.6 20.6 59 5.8 ESE 15 24 8 13 1017.9 - 0.0
30/09:30am 29.0 29.4 20.7 61 5.5 SE 19 32 10 17 1017.9 - 0.0
30/09:00am 28.6 29.7 21.2 64 4.9 SE 17 26 9 14 1017.9 1017.8 0.0
30/08:30am 26.9 29.0 21.0 70 3.9 SSE 11 17 6 9 1017.7 - 0.0
30/08:00am 26.5 28.8 20.6 70 3.9 SSE 9 13 5 7 1017.3 - 0.0
30/07:30am 24.8 29.0 21.8 83 2.0 SW 2 9 1 5 1016.9 - 0.0
30/07:00am 22.7 25.9 21.3 92 0.9 WNW 6 9 3 5 1016.7 - 0.0
30/06:30am 22.3 25.3 20.9 92 0.9 W 6 7 3 4 1016.3 - 0.0
30/06:00am 22.0 24.7 20.6 92 0.9 WNW 7 11 4 6 1016.0 1015.9 0.0
30/05:30am 22.2 26.3 20.8 92 0.9 CALM 0 0 0 0 1015.8 - 0.0
30/05:00am 23.1 26.5 21.0 88 1.4 S 4 11 2 6 1015.4 - 0.0
30/04:30am 24.6 27.0 20.0 75 3.0 SSW 7 11 4 6 1015.4 - 0.0
30/04:00am 25.0 26.9 19.7 72 3.4 SSW 9 15 5 8 1015.4 - 0.0
30/03:30am 25.1 27.0 19.7 72 3.5 S 9 19 5 10 1015.2 - 0.0
30/03:00am 24.0 27.2 21.3 85 1.8 S 6 13 3 7 1015.2 1015.1 0.0
30/02:30am 23.1 27.1 21.4 90 1.1 WSW 2 7 1 4 1015.6 - 0.0
30/02:00am 22.8 25.9 21.1 90 1.1 NW 6 9 3 5 1015.7 - 0.0
30/01:30am 23.6 27.2 21.3 87 1.5 SW 4 11 2 6 1016.0 - 0.0
30/01:00am 25.5 27.9 20.1 72 3.5 S 7 13 4 7 1016.6 - 0.0
30/12:30am 26.2 28.3 20.2 69 3.9 SSW 9 15 5 8 1017.0 - 0.0
30/12:00am 25.6 28.6 20.9 75 3.1 SSW 6 11 3 6 1017.3 1017.2 0.0
 
Date/Time
EST
Temp
°C
App
Temp
°C
Dew
Point
Rel
Hum
%
Delta-T
°C
Wind Press
QNH
hPa
Press
MSL
hPa
Rain
since 9 am
mm
Dir
 
Spd
km/h
Gust
km/h
Spd
kts
Gust
kts
29/11:30pm 24.8 28.0 21.3 81 2.3 S 6 11 3 6 1017.5 - 0.0
29/11:00pm 24.9 28.0 21.4 81 2.3 S 7 11 4 6 1017.5 - 0.0
29/10:30pm 24.8 28.9 21.6 82 2.1 S 2 11 1 6 1017.6 - 0.0
29/10:00pm 26.0 28.5 21.0 74 3.3 SSW 9 13 5 7 1017.6 - 0.0
29/09:30pm 26.2 28.5 20.7 71 3.6 SSW 9 17 5 9 1017.6 - 0.0
29/09:00pm 26.4 28.6 20.3 69 4.0 S 9 13 5 7 1017.6 1017.5 0.0
29/08:30pm 26.6 28.4 20.3 68 4.1 S 11 17 6 9 1017.3 - 0.0
29/08:00pm 26.6 28.9 20.7 70 3.9 S 9 13 5 7 1017.1 - 0.0
29/07:30pm 26.5 29.4 21.0 72 3.6 S 7 13 4 7 1016.9 - 0.0
29/07:00pm 26.7 29.0 21.3 72 3.6 S 11 17 6 9 1016.6 - 0.0
29/06:30pm 26.3 29.2 21.0 72 3.5 S 7 9 4 5 1016.3 - 0.0
29/06:00pm 27.3 30.1 20.9 68 4.2 S 7 13 4 7 1016.0 1015.9 0.0
29/05:30pm 27.7 29.6 20.6 65 4.7 SSE 11 19 6 10 1015.5 - 0.0
29/05:00pm 28.1 28.8 20.5 63 5.0 SSE 17 24 9 13 1015.4 - 0.0
29/04:30pm 28.0 28.6 21.1 66 4.6 SSE 19 26 10 14 1015.2 - 0.0
29/04:00pm 29.1 30.6 21.3 62 5.2 SSE 15 24 8 13 1014.9 - 0.0
29/03:30pm 29.0 29.9 20.9 61 5.4 SSE 17 24 9 13 1014.7 - 0.0
29/03:00pm 29.0 30.3 20.9 61 5.4 SSE 15 24 8 13 1014.9 1014.8 0.0
29/02:30pm 29.8 30.3 20.9 59 5.9 SE 19 26 10 14 1015.0 - 0.0
29/02:00pm 30.0 30.9 20.8 57 6.1 SE 17 24 9 13 1015.2 - 0.0
29/01:30pm 29.2 29.3 19.9 57 6.1 SSE 19 28 10 15 1015.7 - 0.0
29/01:00pm 29.5 30.0 20.9 60 5.7 SE 19 35 10 19 1015.9 - 0.0
29/12:30pm 30.0 30.3 20.7 57 6.2 SE 20 32 11 17 1016.4 - 0.0
29/12:00pm 29.6 29.5 20.7 58 5.9 SE 22 33 12 18 1016.9 1016.8 0.0
29/11:30am 29.4 29.6 20.5 58 5.9 SE 20 32 11 17 1017.3 - 0.0
29/11:00am 30.0 30.4 20.6 57 6.2 SE 19 28 10 15 1017.6 - 0.0
29/10:30am 29.6 29.5 19.5 54 6.6 SE 19 30 10 16 1017.7 - 0.0
29/10:00am 28.3 29.9 21.4 66 4.6 SE 15 22 8 12 1017.9 - 0.0
29/09:30am 28.2 29.9 21.0 65 4.8 SE 13 20 7 11 1017.9 - 0.0
29/09:00am 28.2 30.2 20.8 64 4.9 SE 11 17 6 9 1017.5 1017.4 0.0
29/08:30am 27.5 28.5 20.2 64 4.8 ESE 15 24 8 13 1017.2 - 0.0
29/08:00am 24.4 29.1 22.0 86 1.6 CALM 0 0 0 0 1016.9 - 0.0
29/07:30am 22.0 26.0 20.6 92 0.9 CALM 0 4 0 2 1016.6 - 0.0
29/07:00am 21.5 25.1 20.6 95 0.6 WNW 2 7 1 4 1016.3 - 0.0
29/06:30am 21.0 24.2 20.4 96 0.4 NW 4 7 2 4 1015.8 - 0.0
29/06:00am 21.1 24.7 20.5 96 0.4 NW 2 6 1 3 1015.5 1015.4 0.0
29/05:30am 21.1 23.8 20.3 95 0.5 WNW 6 9 3 5 1015.1 - 0.0
29/05:00am 21.2 23.9 20.3 95 0.6 WNW 6 9 3 5 1014.8 - 0.0
29/04:30am 21.3 24.5 20.5 95 0.5 W 4 7 2 4 1014.4 - 0.0
29/04:00am 21.1 23.8 20.2 95 0.6 W 6 7 3 4 1014.2 - 0.0
29/03:30am 21.1 23.8 20.3 95 0.5 WNW 6 7 3 4 1014.1 - 0.0
29/03:00am 21.1 24.6 20.3 95 0.5 NW 2 6 1 3 1014.1 1014.0 0.0
29/02:30am 21.2 24.0 20.4 95 0.5 W 6 9 3 5 1014.4 - 0.0
29/02:00am 21.2 24.4 20.4 95 0.5 WNW 4 7 2 4 1014.7 - 0.0
29/01:30am 21.1 23.6 20.3 95 0.5 WNW 7 9 4 5 1015.2 - 0.0
29/01:00am 21.3 24.5 20.5 95 0.5 NW 4 9 2 5 1015.6 - 0.0
29/12:30am 21.6 24.3 20.7 95 0.6 W 7 13 4 7 1015.9 - 0.0
29/12:00am 21.7 24.5 20.8 95 0.6 WNW 7 11 4 6 1016.1 1016.0 0.0
 
Date/Time
EST
Temp
°C
App
Temp
°C
Dew
Point
Rel
Hum
%
Delta-T
°C
Wind Press
QNH
hPa
Press
MSL
hPa
Rain
since 9 am
mm
Dir
 
Spd
km/h
Gust
km/h
Spd
kts
Gust
kts
28/11:30pm 21.9 24.9 20.8 93 0.7 W 6 9 3 5 1016.3 - 0.0
28/11:00pm 22.0 25.4 20.9 93 0.7 WNW 4 7 2 4 1016.4 - 0.0
28/10:30pm 22.2 25.3 21.0 93 0.8 NW 6 9 3 5 1016.6 - 0.0
28/10:00pm 22.5 26.4 21.1 92 0.9 W 2 9 1 5 1016.6 - 0.0
28/09:30pm 22.8 26.0 21.3 91 1.0 WNW 6 9 3 5 1016.5 - 0.0
28/09:00pm 23.2 27.7 21.5 90 1.1 CALM 0 0 0 0 1016.4 1016.3 0.0
28/08:30pm 23.9 28.1 21.8 88 1.4 WSW 2 7 1 4 1016.2 - 0.0
28/08:00pm 25.9 28.8 20.7 73 3.4 SSW 6 9 3 5 1015.9 - 0.0
28/07:30pm 26.4 28.6 20.4 69 3.9 SSW 9 11 5 6 1015.6 - 0.0
28/07:00pm 26.9 28.6 20.2 66 4.4 SSW 11 15 6 8 1015.1 - 0.0
28/06:30pm 26.9 28.9 20.0 66 4.5 SSW 9 13 5 7 1014.8 - 0.0
28/06:00pm 27.1 28.7 19.9 64 4.7 S 11 13 6 7 1014.4 1014.3 0.0
28/05:30pm 27.6 29.1 19.8 62 5.1 S 11 19 6 10 1014.1 - 0.0
28/05:00pm 28.5 29.7 19.9 59 5.6 SSE 13 24 7 13 1014.1 - 0.0
28/04:30pm 29.0 30.2 20.0 58 5.9 SSE 13 20 7 11 1014.0 - 0.0
28/04:00pm 29.2 30.2 20.2 58 5.9 SSE 15 26 8 14 1013.9 - 0.0
28/03:30pm 29.1 29.6 20.1 58 5.9 SSE 17 22 9 12 1013.9 - 0.0
28/03:00pm 30.0 31.1 20.5 56 6.3 SSE 15 20 8 11 1013.9 1013.8 0.0
28/02:30pm 30.2 30.6 19.1 51 7.2 SSE 15 22 8 12 1014.0 - 0.0
28/02:00pm 29.6 29.4 18.6 51 7.1 SSE 17 26 9 14 1014.2 - 0.0
28/01:30pm 29.6 30.3 19.7 55 6.5 SSE 15 26 8 14 1014.5 - 0.0
28/01:00pm 29.7 30.2 19.2 53 6.8 SE 15 22 8 12 1015.0 - 0.0
28/12:30pm 29.4 30.1 19.6 55 6.4 SSE 15 28 8 15 1015.4 - 0.0
28/12:00pm 29.8 30.5 19.7 54 6.6 SE 15 24 8 13 1015.9 1015.8 0.0
28/11:30am 29.1 29.4 20.5 59 5.7 SE 19 28 10 15 1016.4 - 0.0
28/11:00am 28.6 29.4 21.4 65 4.8 SSE 19 26 10 14 1016.7 - 0.0
28/10:30am 28.7 31.3 22.7 70 4.1 S 13 20 7 11 1017.1 - 0.0
28/10:00am 28.3 31.0 22.9 72 3.7 SSE 13 20 7 11 1017.1 - 0.0
28/09:30am 28.2 31.4 23.1 74 3.5 SSE 11 15 6 8 1017.3 - 0.0
28/09:00am 27.6 31.4 22.7 74 3.3 SSE 7 13 4 7 1017.1 1017.0 3.4
28/08:30am 26.2 31.3 22.6 80 2.4 CALM 0 0 0 0 1016.9 - 3.4
28/08:00am 24.4 28.4 22.8 91 1.1 SW 6 11 3 6 1016.5 - 3.4
28/07:30am 22.9 26.9 22.1 95 0.5 WSW 4 9 2 5 1016.1 - 3.4
28/07:00am 22.2 26.8 21.7 97 0.3 CALM 0 4 0 2 1015.9 - 3.4
28/06:30am 21.8 26.3 21.5 98 0.2 CALM 0 0 0 0 1015.7 - 3.4
28/06:00am 22.0 25.2 21.7 98 0.2 W 7 15 4 8 1015.4 1015.3 3.4
28/05:30am 22.0 25.3 21.5 97 0.3 WNW 6 11 3 6 1015.0 - 3.4
28/05:00am 22.0 26.6 21.7 98 0.2 CALM 0 0 0 0 1014.8 - 3.4
28/04:30am 22.3 27.0 22.0 98 0.2 CALM 0 0 0 0 1014.6 - 3.4
28/04:00am 22.5 27.3 22.2 98 0.2 CALM 0 0 0 0 1014.6 - 3.2
28/03:30am 22.6 27.4 22.1 97 0.3 CALM 0 0 0 0 1014.5 - 3.2
28/03:00am 22.7 26.8 22.2 97 0.3 W 4 11 2 6 1014.4 1014.3 3.2
28/02:30am 22.9 27.9 22.5 98 0.3 CALM 0 0 0 0 1014.6 - 3.2
28/02:00am 23.0 28.1 22.6 98 0.3 CALM 0 0 0 0 1014.8 - 3.2
28/01:30am 23.0 27.3 22.6 98 0.3 W 4 6 2 3 1015.0 - 3.2
28/01:00am 23.2 28.0 22.8 98 0.3 WNW 2 7 1 4 1015.2 - 3.2
28/12:30am 23.2 26.7 22.8 98 0.3 WSW 9 13 5 7 1015.4 - 3.2
28/12:00am 23.5 28.7 22.9 96 0.4 CALM 0 7 0 4 1015.6 1015.5 3.2
 
Date/Time
EST
Temp
°C
App
Temp
°C
Dew
Point
Rel
Hum
%
Delta-T
°C
Wind Press
QNH
hPa
Press
MSL
hPa
Rain
since 9 am
mm
Dir
 
Spd
km/h
Gust
km/h
Spd
kts
Gust
kts
27/11:30pm 23.7 27.7 23.1 96 0.4 WSW 7 13 4 7 1015.9 - 3.2
27/11:00pm 24.0 27.6 23.1 95 0.6 WSW 9 13 5 7 1016.0 - 3.2
27/10:30pm 23.9 28.2 23.3 96 0.4 W 6 11 3 6 1016.2 - 3.2
27/10:00pm 24.0 28.1 23.0 94 0.7 W 6 7 3 4 1016.4 - 0.4
27/09:30pm 24.1 28.9 22.9 93 0.8 W 2 7 1 4 1016.4 - 0.4
27/09:00pm 24.2 28.1 23.0 93 0.8 WSW 7 11 4 6 1016.1 1016.0 0.4

Other Formats:

Comma delimited format used in spreadsheet applications
http://www.bom.gov.au/fwo/IDQ60801/IDQ60801.95292.axf

JavaScript Object Notation format (JSON) in row-major order
http://www.bom.gov.au/fwo/IDQ60801/IDQ60801.95292.json